createdAt,value
2022-10-09T00:01:33.421Z,101582.56
2022-10-09T00:04:01.218Z,101579.22
2022-10-09T00:06:32.921Z,101573.00
2022-10-09T00:09:05.303Z,101577.59
2022-10-09T00:11:38.008Z,101581.53
2022-10-09T00:14:06.202Z,101586.50
2022-10-09T00:16:34.723Z,101591.06
2022-10-09T00:19:03.886Z,101591.88
2022-10-09T00:21:35.845Z,101598.56
2022-10-09T00:24:04.896Z,101606.19
2022-10-09T00:26:34.330Z,101615.31
2022-10-09T00:29:02.098Z,101614.25
2022-10-09T00:31:34.214Z,101614.25
2022-10-09T00:34:17.940Z,101611.16
2022-10-09T00:37:04.301Z,101619.03
2022-10-09T00:39:37.446Z,101610.13
2022-10-09T00:42:05.777Z,101612.81
2022-10-09T00:44:55.072Z,101616.13
2022-10-09T00:47:33.967Z,101617.16
2022-10-09T00:50:42.761Z,101611.75
2022-10-09T00:53:14.541Z,101622.75
2022-10-09T00:55:43.853Z,101619.44
2022-10-09T00:58:13.662Z,101613.22
2022-10-09T01:00:42.322Z,101606.81
2022-10-09T01:03:10.179Z,101601.84
2022-10-09T01:05:56.153Z,101608.03
2022-10-09T01:08:52.487Z,101597.91
2022-10-09T01:11:39.821Z,101594.16
2022-10-09T01:14:16.382Z,101597.25
2022-10-09T01:17:03.209Z,101594.16
2022-10-09T01:19:37.004Z,101595.00
2022-10-09T01:22:29.754Z,101591.69
2022-10-09T01:25:06.744Z,101589.44
2022-10-09T01:27:36.667Z,101597.09
2022-10-09T01:30:09.446Z,101593.78
2022-10-09T01:32:47.731Z,101596.25
2022-10-09T01:35:17.680Z,101594.81
2022-10-09T01:37:47.788Z,101591.69
2022-10-09T01:40:18.634Z,101589.44
2022-10-09T01:42:49.894Z,101592.94
2022-10-09T01:45:17.942Z,101594.19
2022-10-09T01:47:45.709Z,101584.03
2022-10-09T01:50:35.719Z,101585.50
2022-10-09T01:53:14.789Z,101583.66
2022-10-09T01:56:10.439Z,101582.59
2022-10-09T01:58:52.909Z,101576.38
2022-10-09T02:01:35.085Z,101574.31
2022-10-09T02:04:08.083Z,101575.56
2022-10-09T02:06:39.015Z,101575.56
2022-10-09T02:09:13.488Z,101575.56
2022-10-09T02:11:44.889Z,101576.81
2022-10-09T02:14:12.971Z,101572.44
2022-10-09T02:16:47.356Z,101568.94
2022-10-09T02:19:44.596Z,101561.50
2022-10-09T02:22:38.945Z,101555.69
2022-10-09T02:25:26.062Z,101544.31
2022-10-09T02:28:03.977Z,101549.69
2022-10-09T02:31:10.007Z,101540.38
2022-10-09T02:33:45.986Z,101543.47
2022-10-09T02:36:24.148Z,101547.19
2022-10-09T02:39:30.227Z,101543.69
2022-10-09T02:42:16.846Z,101540.16
2022-10-09T02:44:58.495Z,101540.56
2022-10-09T02:50:43.811Z,101541.19
2022-10-09T02:53:14.280Z,101525.91
2022-10-09T02:55:46.814Z,101525.25
2022-10-09T02:58:23.190Z,101511.81
2022-10-09T03:00:52.676Z,101524.66
2022-10-09T03:03:28.682Z,101515.94
2022-10-09T03:06:14.120Z,101517.81
2022-10-09T03:08:49.348Z,101518.41
2022-10-09T03:11:22.047Z,101508.91
2022-10-09T03:13:50.457Z,101508.50
2022-10-09T03:16:24.593Z,101505.59
2022-10-09T03:18:53.315Z,101506.19
2022-10-09T03:21:28.345Z,101501.03
2022-10-09T03:23:57.012Z,101505.16
2022-10-09T03:26:26.573Z,101500.38
2022-10-09T03:28:55.839Z,101503.06
2022-10-09T03:31:52.527Z,101502.47
2022-10-09T03:34:15.698Z,101508.44
2022-10-09T03:36:43.828Z,101504.47
2022-10-09T03:39:11.174Z,101506.13
2022-10-09T03:41:38.641Z,101498.06
2022-10-09T03:44:06.530Z,101498.50
2022-10-09T03:46:34.306Z,101501.00
2022-10-09T03:49:01.735Z,101498.53
2022-10-09T03:51:29.237Z,101496.84
2022-10-09T03:53:57.052Z,101492.53
2022-10-09T03:56:24.752Z,101489.81
2022-10-09T03:58:52.489Z,101489.63
2022-10-09T04:01:20.386Z,101493.94
2022-10-09T04:03:48.121Z,101493.53
2022-10-09T04:06:18.855Z,101490.66
2022-10-09T04:08:46.844Z,101492.50
2022-10-09T04:11:14.468Z,101490.03
2022-10-09T04:13:42.173Z,101488.75
2022-10-09T04:16:13.149Z,101487.31
2022-10-09T04:18:41.811Z,101491.69
2022-10-09T04:21:09.553Z,101495.00
2022-10-09T04:23:37.107Z,101485.00
2022-10-09T04:26:04.797Z,101486.25
2022-10-09T04:28:33.801Z,101483.38
2022-10-09T04:31:05.611Z,101485.63
2022-10-09T04:33:35.634Z,101491.66
2022-10-09T04:36:04.244Z,101487.06
2022-10-09T04:38:32.315Z,101480.25
2022-10-09T04:41:05.942Z,101483.38
2022-10-09T04:43:35.640Z,101488.13
2022-10-09T04:46:20.161Z,101489.78
2022-10-09T04:48:48.761Z,101493.09
2022-10-09T04:51:18.687Z,101484.22
2022-10-09T04:53:46.693Z,101483.59
2022-10-09T04:56:23.100Z,101492.91
2022-10-09T04:58:51.482Z,101489.81
2022-10-09T05:01:25.718Z,101485.28
2022-10-09T05:03:53.491Z,101476.56
2022-10-09T05:06:22.680Z,101486.31
2022-10-09T05:08:50.701Z,101476.38
2022-10-09T05:11:20.475Z,101481.13
2022-10-09T05:13:53.606Z,101482.78
2022-10-09T05:16:27.434Z,101478.22
2022-10-09T05:18:57.782Z,101478.44
2022-10-09T05:21:26.423Z,101480.91
2022-10-09T05:23:55.214Z,101483.19
2022-10-09T05:26:25.136Z,101483.19
2022-10-09T05:28:53.246Z,101480.50
2022-10-09T05:31:30.146Z,101478.84
2022-10-09T05:34:00.185Z,101476.97
2022-10-09T05:36:27.653Z,101475.94
2022-10-09T05:38:55.813Z,101485.69
2022-10-09T05:41:23.131Z,101484.22
2022-10-09T05:43:51.210Z,101479.03
2022-10-09T05:46:26.395Z,101482.31
2022-10-09T05:49:03.129Z,101482.13
2022-10-09T05:51:45.759Z,101478.38
2022-10-09T05:54:23.947Z,101480.22
2022-10-09T05:56:59.228Z,101476.31
2022-10-09T05:59:30.028Z,101482.13
2022-10-09T06:01:59.937Z,101481.06
2022-10-09T06:04:29.132Z,101478.00
2022-10-09T06:07:00.184Z,101481.50
2022-10-09T06:09:29.524Z,101485.66
2022-10-09T06:12:00.144Z,101486.69
2022-10-09T06:14:32.720Z,101483.59
2022-10-09T06:17:05.207Z,101494.31
2022-10-09T06:19:40.166Z,101486.84
2022-10-09T06:22:12.184Z,101491.81
2022-10-09T06:24:53.956Z,101494.50
2022-10-09T06:27:22.506Z,101499.69
2022-10-09T06:29:50.047Z,101502.00
2022-10-09T06:32:17.527Z,101500.94
2022-10-09T06:34:45.137Z,101503.06
2022-10-09T06:37:12.623Z,101506.16
2022-10-09T06:39:39.958Z,101509.28
2022-10-09T06:42:10.572Z,101515.47
2022-10-09T06:44:46.032Z,101516.09
2022-10-09T06:47:13.570Z,101517.19
2022-10-09T06:49:41.638Z,101517.38
2022-10-09T06:52:09.249Z,101513.03
2022-10-09T06:54:39.524Z,101508.72
2022-10-09T06:57:07.260Z,101509.13
2022-10-09T06:59:42.762Z,101508.91
2022-10-09T07:02:10.469Z,101512.22
2022-10-09T07:04:38.093Z,101513.47
2022-10-09T07:07:09.001Z,101519.06
2022-10-09T07:09:39.858Z,101520.72
2022-10-09T07:12:07.526Z,101523.41
2022-10-09T07:14:37.831Z,101526.25
2022-10-09T07:17:06.150Z,101524.59
2022-10-09T07:19:35.456Z,101523.53
2022-10-09T07:22:03.001Z,101525.41
2022-10-09T07:24:42.497Z,101524.72
2022-10-09T07:27:09.969Z,101527.38
2022-10-09T07:29:46.470Z,101531.06
2022-10-09T07:32:13.814Z,101524.59
2022-10-09T07:34:45.025Z,101527.31
2022-10-09T07:37:17.232Z,101534.31
2022-10-09T07:39:45.550Z,101534.66
2022-10-09T07:42:19.109Z,101540.72
2022-10-09T07:44:53.849Z,101538.03
2022-10-09T07:47:26.282Z,101532.56
2022-10-09T07:49:57.159Z,101537.31
2022-10-09T07:52:24.266Z,101524.63
2022-10-09T07:54:52.458Z,101535.84
2022-10-09T07:57:20.236Z,101531.66
2022-10-09T07:59:47.562Z,101537.81
2022-10-09T08:02:14.948Z,101540.25
2022-10-09T08:04:42.285Z,101535.81
2022-10-09T08:07:09.709Z,101539.28
2022-10-09T08:09:37.377Z,101541.38
2022-10-09T08:12:04.896Z,101539.50
2022-10-09T08:14:32.491Z,101536.56
2022-10-09T08:17:00.671Z,101536.78
2022-10-09T08:19:27.965Z,101540.53
2022-10-09T08:21:56.240Z,101543.84
2022-10-09T08:24:25.649Z,101535.31
2022-10-09T08:26:52.997Z,101539.50
2022-10-09T08:29:21.503Z,101540.31
2022-10-09T08:31:49.028Z,101547.81
2022-10-09T08:34:16.613Z,101545.56
2022-10-09T08:36:44.993Z,101542.25
2022-10-09T08:39:12.504Z,101544.06
2022-10-09T08:42:07.226Z,101543.19
2022-10-09T08:44:49.618Z,101553.53
2022-10-09T08:47:41.360Z,101551.47
2022-10-09T08:50:20.654Z,101545.28
2022-10-09T08:53:03.246Z,101537.25
2022-10-09T08:55:41.588Z,101547.38
2022-10-09T08:58:17.932Z,101548.41
2022-10-09T09:00:57.651Z,101541.47
2022-10-09T09:03:56.536Z,101542.13
2022-10-09T09:07:04.177Z,101538.38
2022-10-09T09:14:07.921Z,101542.78
2022-10-09T09:16:52.505Z,101538.81
2022-10-09T09:19:56.562Z,101535.25
2022-10-09T09:22:54.156Z,101542.47
2022-10-09T09:25:41.231Z,101547.63
2022-10-09T09:28:51.011Z,101546.41
2022-10-09T09:31:40.067Z,101545.19
2022-10-09T09:34:55.440Z,101548.09
2022-10-09T09:37:51.636Z,101547.03
2022-10-09T09:41:03.231Z,101540.75
2022-10-09T09:44:03.349Z,101545.03
2022-10-09T09:46:59.306Z,101539.31
2022-10-09T09:49:32.559Z,101526.16
2022-10-09T09:52:14.740Z,101533.81
2022-10-09T09:54:53.766Z,101530.66
2022-10-09T09:57:48.689Z,101535.22
2022-10-09T10:00:26.535Z,101531.81
2022-10-09T10:03:21.145Z,101523.81
2022-10-09T10:06:22.084Z,101526.47
2022-10-09T10:09:43.216Z,101519.16
2022-10-09T10:12:53.038Z,101520.44
2022-10-09T10:15:43.030Z,101512.50
2022-10-09T10:18:56.584Z,101520.66
2022-10-09T10:21:39.856Z,101518.91
2022-10-09T10:24:26.796Z,101507.50
2022-10-09T10:27:04.688Z,101512.50
2022-10-09T10:29:50.303Z,101511.34
2022-10-09T10:32:28.498Z,101513.44
2022-10-09T10:35:10.934Z,101502.13
2022-10-09T10:37:46.150Z,101509.81
2022-10-09T10:40:29.268Z,101510.28
2022-10-09T10:43:12.530Z,101513.69
2022-10-09T10:46:06.183Z,101503.22
2022-10-09T10:48:48.386Z,101499.28
2022-10-09T10:51:34.139Z,101495.50
2022-10-09T10:54:48.357Z,101500.56
2022-10-09T10:57:27.051Z,101502.41
2022-10-09T11:00:05.986Z,101497.69
2022-10-09T11:02:43.301Z,101503.59
2022-10-09T11:05:23.571Z,101495.28
2022-10-09T11:08:18.646Z,101494.38
2022-10-09T11:11:10.617Z,101490.59
2022-10-09T11:13:53.431Z,101495.09
2022-10-09T11:16:45.106Z,101492.38
2022-10-09T11:19:37.336Z,101492.13
2022-10-09T11:22:47.313Z,101484.88
2022-10-09T11:25:17.725Z,101493.34
2022-10-09T11:28:14.066Z,101501.00
2022-10-09T11:31:14.652Z,101499.66
2022-10-09T11:33:48.658Z,101488.13
2022-10-09T11:36:45.710Z,101498.38
2022-10-09T11:39:24.071Z,101490.00
2022-10-09T11:41:53.833Z,101483.41
2022-10-09T11:44:30.352Z,101478.47
2022-10-09T11:47:12.433Z,101481.50
2022-10-09T11:49:58.221Z,101488.31
2022-10-09T11:52:58.801Z,101471.22
2022-10-09T11:55:31.537Z,101477.38
2022-10-09T11:58:36.467Z,101467.19
2022-10-09T12:01:23.928Z,101471.81
2022-10-09T12:04:12.830Z,101460.03
2022-10-09T12:07:10.146Z,101459.09
2022-10-09T12:09:58.302Z,101456.88
2022-10-09T12:12:28.583Z,101449.09
2022-10-09T12:14:56.013Z,101451.56
2022-10-09T12:17:48.680Z,101444.34
2022-10-09T12:20:23.176Z,101437.03
2022-10-09T12:25:54.455Z,101429.06
2022-10-09T12:28:28.401Z,101431.81
2022-10-09T12:30:59.586Z,101433.06
2022-10-09T12:33:35.859Z,101422.84
2022-10-09T12:36:15.666Z,101418.69
2022-10-09T12:38:43.987Z,101432.81
2022-10-09T12:41:35.295Z,101428.22
2022-10-09T12:44:29.993Z,101425.75
2022-10-09T12:47:05.215Z,101420.28
2022-10-09T12:49:34.019Z,101420.97
2022-10-09T12:52:02.642Z,101418.41
2022-10-09T12:54:32.248Z,101410.16
2022-10-09T12:57:01.716Z,101410.47
2022-10-09T12:59:30.199Z,101416.47
2022-10-09T13:02:01.343Z,101409.09
2022-10-09T13:04:33.844Z,101409.00
2022-10-09T13:07:07.504Z,101398.41
2022-10-09T13:09:38.642Z,101397.59
2022-10-09T13:12:23.466Z,101392.66
2022-10-09T13:15:01.949Z,101391.81
2022-10-09T13:17:42.437Z,101388.88
2022-10-09T13:20:13.101Z,101388.41
2022-10-09T13:22:55.875Z,101378.47
2022-10-09T13:25:30.466Z,101382.06
2022-10-09T13:28:00.733Z,101377.22
2022-10-09T13:30:36.450Z,101381.88
2022-10-09T13:33:04.173Z,101373.19
2022-10-09T13:35:32.069Z,101374.25
2022-10-09T13:38:02.351Z,101372.69
2022-10-09T13:40:36.995Z,101364.84
2022-10-09T13:43:06.550Z,101361.34
2022-10-09T13:45:48.149Z,101356.88
2022-10-09T13:48:15.988Z,101356.72
2022-10-09T13:50:54.699Z,101360.28
2022-10-09T13:53:26.136Z,101351.78
2022-10-09T13:56:00.024Z,101356.94
2022-10-09T13:58:29.195Z,101349.78
2022-10-09T14:00:56.865Z,101349.91
2022-10-09T14:03:24.875Z,101351.59
2022-10-09T14:06:00.239Z,101343.94
2022-10-09T14:08:30.565Z,101343.00
2022-10-09T14:11:01.079Z,101336.78
2022-10-09T14:13:30.194Z,101339.50
2022-10-09T14:15:58.248Z,101337.38
2022-10-09T14:18:26.563Z,101337.38
2022-10-09T14:20:53.955Z,101335.63
2022-10-09T14:23:21.276Z,101338.28
2022-10-09T14:25:48.789Z,101334.03
2022-10-09T14:28:16.983Z,101331.88
2022-10-09T14:30:46.898Z,101317.03
2022-10-09T14:33:14.845Z,101321.63
2022-10-09T14:35:42.193Z,101314.41
2022-10-09T14:38:09.881Z,101325.25
2022-10-09T14:40:43.398Z,101312.75
2022-10-09T14:43:11.862Z,101321.03
2022-10-09T14:45:39.990Z,101317.81
2022-10-09T14:48:07.376Z,101308.94
2022-10-09T14:50:37.057Z,101301.72
2022-10-09T14:53:08.643Z,101298.47
2022-10-09T14:55:38.403Z,101305.59
2022-10-09T14:58:05.708Z,101309.44
2022-10-09T15:00:49.634Z,101308.38
2022-10-09T15:03:19.035Z,101308.94
2022-10-09T15:05:46.307Z,101302.66
2022-10-09T15:08:17.642Z,101303.22
2022-10-09T15:10:45.104Z,101294.09
2022-10-09T15:13:12.568Z,101299.44
2022-10-09T15:15:40.121Z,101294.72
2022-10-09T15:18:07.527Z,101294.84
2022-10-09T15:20:37.734Z,101297.44
2022-10-09T15:23:05.139Z,101296.03
2022-10-09T15:25:32.484Z,101298.75
2022-10-09T15:28:03.239Z,101306.06
2022-10-09T15:30:31.119Z,101305.97
2022-10-09T15:33:03.387Z,101310.81
2022-10-09T15:35:33.658Z,101305.78
2022-10-09T15:38:01.804Z,101306.03
2022-10-09T15:40:29.246Z,101300.75
2022-10-09T15:42:56.415Z,101305.19
2022-10-09T15:45:23.842Z,101296.50
2022-10-09T15:47:56.314Z,101292.50
2022-10-09T15:50:23.997Z,101291.69
2022-10-09T15:52:51.583Z,101295.94
2022-10-09T15:55:19.207Z,101296.88
2022-10-09T15:57:49.830Z,101301.44
2022-10-09T16:00:18.012Z,101310.06
2022-10-09T16:02:45.405Z,101305.00
2022-10-09T16:05:16.027Z,101304.09
2022-10-09T16:07:48.471Z,101303.63
2022-10-09T16:10:16.151Z,101311.75
2022-10-09T16:12:43.697Z,101319.38
2022-10-09T16:15:11.795Z,101319.25
2022-10-09T16:17:39.226Z,101317.41
2022-10-09T16:20:07.680Z,101317.72
2022-10-09T16:22:45.606Z,101319.41
2022-10-09T16:25:13.842Z,101320.59
2022-10-09T16:27:49.427Z,101320.59
2022-10-09T16:30:17.019Z,101321.75
2022-10-09T16:32:44.450Z,101331.97
2022-10-09T16:35:12.057Z,101322.22
2022-10-09T16:37:39.533Z,101327.75
2022-10-09T16:40:08.184Z,101334.81
2022-10-09T16:42:44.477Z,101330.25
2022-10-09T16:45:45.616Z,101334.00
2022-10-09T16:48:12.939Z,101333.41
2022-10-09T16:50:50.936Z,101330.59
2022-10-09T16:53:51.925Z,101333.50
2022-10-09T16:56:22.243Z,101334.00
2022-10-09T16:58:50.295Z,101337.78
2022-10-09T17:01:18.203Z,101325.53
2022-10-09T17:03:49.108Z,101333.91
2022-10-09T17:06:23.982Z,101328.81
2022-10-09T17:08:59.552Z,101332.81
2022-10-09T17:11:32.998Z,101340.00
2022-10-09T17:14:00.943Z,101338.94
2022-10-09T17:16:32.806Z,101343.28
2022-10-09T17:19:00.568Z,101339.66
2022-10-09T17:21:32.884Z,101342.81
2022-10-09T17:24:04.236Z,101345.28
2022-10-09T17:26:38.844Z,101347.19
2022-10-09T17:29:06.645Z,101347.91
2022-10-09T17:31:35.391Z,101353.88
2022-10-09T17:34:04.663Z,101357.63
2022-10-09T17:36:46.042Z,101364.38
2022-10-09T17:39:17.568Z,101360.25
2022-10-09T17:41:49.756Z,101357.53
2022-10-09T17:44:39.537Z,101365.03
2022-10-09T17:47:38.440Z,101364.81
2022-10-09T17:50:11.505Z,101356.13
2022-10-09T17:52:39.004Z,101358.81
2022-10-09T17:55:07.156Z,101358.00
2022-10-09T17:57:41.401Z,101364.81
2022-10-09T18:00:13.661Z,101369.41
2022-10-09T18:02:41.196Z,101374.00
2022-10-09T18:05:11.741Z,101368.22
2022-10-09T18:07:39.878Z,101375.88
2022-10-09T18:10:10.194Z,101372.13
2022-10-09T18:12:39.621Z,101374.25
2022-10-09T18:15:07.778Z,101369.28
2022-10-09T18:17:37.991Z,101367.66
2022-10-09T18:20:06.234Z,101366.22
2022-10-09T18:22:38.477Z,101359.41
2022-10-09T18:25:10.083Z,101356.69
2022-10-09T18:27:37.723Z,101356.09
2022-10-09T18:30:14.032Z,101359.88
2022-10-09T18:32:44.933Z,101365.28
2022-10-09T18:35:55.142Z,101373.41
2022-10-09T18:38:35.175Z,101387.13
2022-10-09T18:41:05.932Z,101385.28
2022-10-09T18:43:39.912Z,101391.50
2022-10-09T18:46:08.234Z,101397.75
2022-10-09T18:48:39.669Z,101392.34
2022-10-09T18:51:16.679Z,101395.03
2022-10-09T18:53:47.445Z,101397.75
2022-10-09T18:56:21.720Z,101389.63
2022-10-09T18:58:52.717Z,101392.34
2022-10-09T19:01:21.169Z,101398.78
2022-10-09T19:03:50.251Z,101400.44
2022-10-09T19:06:21.343Z,101393.97
2022-10-09T19:08:53.156Z,101401.50
2022-10-09T19:11:23.524Z,101402.53
2022-10-09T19:13:51.370Z,101395.03
2022-10-09T19:16:28.439Z,101396.91
2022-10-09T19:18:56.919Z,101397.75
2022-10-09T19:21:25.012Z,101396.91
2022-10-09T19:23:53.914Z,101400.66
2022-10-09T19:26:24.745Z,101402.78
2022-10-09T19:28:55.587Z,101407.94
2022-10-09T19:31:23.179Z,101398.19
2022-10-09T19:33:50.649Z,101404.66
2022-10-09T19:36:18.378Z,101401.97
2022-10-09T19:38:47.127Z,101409.59
2022-10-09T19:41:18.601Z,101411.25
2022-10-09T19:44:02.584Z,101413.72
2022-10-09T19:46:40.959Z,101422.66
2022-10-09T19:49:13.915Z,101423.69
2022-10-09T19:51:44.657Z,101421.59
2022-10-09T19:54:16.004Z,101420.31
2022-10-09T19:56:43.561Z,101417.63
2022-10-09T19:59:16.429Z,101423.84
2022-10-09T20:01:45.822Z,101422.56
2022-10-09T20:04:14.844Z,101426.91
2022-10-09T20:06:44.849Z,101410.94
2022-10-09T20:09:12.673Z,101419.84
2022-10-09T20:11:45.627Z,101427.72
2022-10-09T20:14:16.413Z,101418.56
2022-10-09T20:16:44.357Z,101415.88
2022-10-09T20:19:13.425Z,101423.97
2022-10-09T20:21:41.416Z,101419.63
2022-10-09T20:24:08.838Z,101420.44
2022-10-09T20:26:39.786Z,101422.56
2022-10-09T20:29:11.358Z,101420.91
2022-10-09T20:31:39.454Z,101425.25
2022-10-09T20:34:07.340Z,101421.94
2022-10-09T20:36:39.695Z,101421.75
2022-10-09T20:39:12.219Z,101421.13
2022-10-09T20:41:41.089Z,101434.66
2022-10-09T20:44:09.172Z,101434.84
2022-10-09T20:46:38.887Z,101443.09
2022-10-09T20:49:13.175Z,101439.22
2022-10-09T20:51:46.818Z,101441.34
2022-10-09T20:54:17.722Z,101442.97
2022-10-09T20:56:46.425Z,101442.97
2022-10-09T20:59:14.376Z,101442.75
2022-10-09T21:01:42.517Z,101446.84
2022-10-09T21:04:11.904Z,101443.91
2022-10-09T21:06:39.951Z,101454.53
2022-10-09T21:09:10.891Z,101453.09
2022-10-09T21:11:42.800Z,101456.63
2022-10-09T21:14:10.914Z,101456.94
2022-10-09T21:16:38.409Z,101461.31
2022-10-09T21:19:08.463Z,101458.38
2022-10-09T21:21:35.898Z,101464.38
2022-10-09T21:24:03.511Z,101463.38
2022-10-09T21:26:47.108Z,101462.72
2022-10-09T21:29:14.917Z,101468.59
2022-10-09T21:31:45.506Z,101469.84
2022-10-09T21:34:12.865Z,101476.50
2022-10-09T21:37:16.388Z,101466.78
2022-10-09T21:39:39.583Z,101473.22
2022-10-09T21:42:06.976Z,101468.53
2022-10-09T21:44:34.544Z,101472.03
2022-10-09T21:47:02.078Z,101483.69
2022-10-09T21:49:30.602Z,101478.59
2022-10-09T21:51:58.536Z,101479.19
2022-10-09T21:54:26.357Z,101488.50
2022-10-09T21:56:53.941Z,101482.03
2022-10-09T21:59:23.185Z,101488.81
2022-10-09T22:01:56.034Z,101495.38
2022-10-09T22:04:24.725Z,101487.75
2022-10-09T22:06:56.953Z,101485.97
2022-10-09T22:09:25.376Z,101481.97
2022-10-09T22:11:53.000Z,101489.72
2022-10-09T22:14:21.315Z,101487.50
2022-10-09T22:16:50.863Z,101491.97
2022-10-09T22:19:34.753Z,101487.69
2022-10-09T22:22:03.819Z,101489.59
2022-10-09T22:24:34.855Z,101482.97
2022-10-09T22:27:09.041Z,101484.72
2022-10-09T22:29:41.177Z,101482.00
2022-10-09T22:32:11.290Z,101483.66
2022-10-09T22:34:39.116Z,101486.28
2022-10-09T22:37:07.648Z,101482.41
2022-10-09T22:39:36.182Z,101485.09
2022-10-09T22:42:06.201Z,101482.97
2022-10-09T22:44:36.040Z,101487.91
2022-10-09T22:47:05.525Z,101483.13
2022-10-09T22:49:36.918Z,101484.78
2022-10-09T22:52:05.243Z,101484.31
2022-10-09T22:54:33.073Z,101497.38
2022-10-09T22:57:00.618Z,101488.53
2022-10-09T22:59:28.717Z,101485.22
2022-10-09T23:01:58.177Z,101477.13
2022-10-09T23:04:25.666Z,101478.38
2022-10-09T23:07:10.565Z,101478.50
2022-10-09T23:09:38.375Z,101475.63
2022-10-09T23:12:12.955Z,101474.72
2022-10-09T23:14:42.832Z,101472.41
2022-10-09T23:17:20.568Z,101471.94
2022-10-09T23:19:49.762Z,101471.94
2022-10-09T23:22:21.369Z,101471.34
2022-10-09T23:24:49.169Z,101470.09
2022-10-09T23:27:17.530Z,101462.72
2022-10-09T23:29:45.651Z,101463.72
2022-10-09T23:32:14.298Z,101462.63
2022-10-09T23:34:45.716Z,101458.16
2022-10-09T23:37:13.628Z,101458.97
2022-10-09T23:39:41.394Z,101458.97
2022-10-09T23:42:09.682Z,101459.34
2022-10-09T23:44:37.642Z,101458.50
2022-10-09T23:47:05.311Z,101463.09
2022-10-09T23:49:33.055Z,101461.50
2022-10-09T23:52:02.149Z,101458.38
2022-10-09T23:54:29.957Z,101466.03
2022-10-09T23:57:01.625Z,101461.22
2022-10-09T23:59:29.551Z,101457.91
